createdAt,value
2022-12-27T02:31:16.903Z,101360.06
2022-12-27T03:08:20.811Z,101312.00
2022-12-27T03:30:16.011Z,101282.94
2022-12-27T03:33:32.659Z,101270.84
2022-12-27T03:36:59.422Z,101263.09
2022-12-27T03:40:13.255Z,101267.28
2022-12-27T03:46:47.175Z,101239.94
2022-12-27T03:49:26.262Z,101231.94
2022-12-27T04:02:15.013Z,101214.72
2022-12-27T04:12:44.011Z,101186.59
2022-12-27T04:19:53.475Z,101174.78
2022-12-27T04:39:06.643Z,101133.94
2022-12-27T04:42:04.316Z,101120.03
2022-12-27T04:48:58.040Z,101108.75
2022-12-27T04:51:57.201Z,101102.56
2022-12-27T04:54:51.552Z,101097.25
2022-12-27T04:57:22.591Z,101086.59
2022-12-27T05:00:09.860Z,101078.66
2022-12-27T05:02:56.716Z,101073.72
2022-12-27T05:05:38.767Z,101067.19
2022-12-27T05:08:35.832Z,101059.97
2022-12-27T05:11:33.579Z,101066.75
2022-12-27T05:14:21.577Z,101049.84
2022-12-27T05:17:03.545Z,101039.34
2022-12-27T05:19:43.676Z,101029.56
2022-12-27T05:22:43.921Z,101024.69
2022-12-27T05:25:43.072Z,101025.47
2022-12-27T05:28:17.070Z,101006.94
2022-12-27T05:30:50.466Z,100999.88
2022-12-27T05:33:38.300Z,100988.56
2022-12-27T05:36:12.813Z,100973.31
2022-12-27T05:38:54.568Z,100962.78
2022-12-27T05:41:31.702Z,100956.78
2022-12-27T05:44:07.790Z,100945.59
2022-12-27T05:46:48.997Z,100942.53
2022-12-27T05:49:29.156Z,100942.19
2022-12-27T05:52:08.092Z,100933.00
2022-12-27T05:55:03.099Z,100926.28
2022-12-27T05:57:39.270Z,100912.72
2022-12-27T06:00:22.694Z,100908.41
2022-12-27T06:02:55.488Z,100901.19
2022-12-27T06:05:25.236Z,100896.75
2022-12-27T06:08:00.872Z,100895.84
2022-12-27T06:10:43.870Z,100880.16
2022-12-27T06:13:15.702Z,100879.22
2022-12-27T06:16:13.976Z,100879.31
2022-12-27T06:19:20.892Z,100874.91
2022-12-27T06:22:00.906Z,100863.59
2022-12-27T06:24:42.064Z,100867.81
2022-12-27T06:27:31.303Z,100852.09
2022-12-27T06:30:34.330Z,100849.25
2022-12-27T06:33:17.982Z,100833.38
2022-12-27T06:35:48.225Z,100829.78
2022-12-27T06:38:32.799Z,100816.16
2022-12-27T06:41:11.363Z,100819.59
2022-12-27T06:43:54.543Z,100808.84
2022-12-27T06:46:34.283Z,100795.16
2022-12-27T06:49:38.000Z,100785.47
2022-12-27T06:52:10.267Z,100772.16
2022-12-27T06:54:46.853Z,100757.47
2022-12-27T06:58:03.875Z,100754.41
2022-12-27T07:01:02.718Z,100746.16
2022-12-27T07:04:03.579Z,100739.53
2022-12-27T07:06:41.217Z,100739.75
2022-12-27T07:09:17.271Z,100721.47
2022-12-27T07:12:02.118Z,100725.44
2022-12-27T07:14:39.988Z,100729.47
2022-12-27T07:42:10.617Z,100639.72
2022-12-27T07:55:41.964Z,100606.81
2022-12-27T08:59:48.906Z,100529.13
2022-12-27T09:02:43.307Z,100520.28
2022-12-27T09:05:54.991Z,100511.03
2022-12-27T09:12:58.794Z,100506.16
2022-12-27T09:16:14.736Z,100497.97
2022-12-27T09:22:14.418Z,100490.81
2022-12-27T09:25:29.383Z,100500.81
2022-12-27T09:28:19.865Z,100473.63
2022-12-27T09:31:17.793Z,100483.31
2022-12-27T09:34:18.911Z,100466.38
2022-12-27T09:37:18.182Z,100473.19
2022-12-27T09:41:05.090Z,100438.06
2022-12-27T09:43:38.696Z,100444.16
2022-12-27T09:47:00.286Z,100433.81
2022-12-27T09:50:08.880Z,100423.94
2022-12-27T09:53:15.416Z,100416.03
2022-12-27T09:57:18.741Z,100420.66
2022-12-27T10:00:30.926Z,100407.69
2022-12-27T10:03:01.333Z,100423.28
2022-12-27T10:05:56.259Z,100416.00
2022-12-27T10:08:53.555Z,100392.81
2022-12-27T10:11:43.978Z,100373.06
2022-12-27T10:15:02.761Z,100430.03
2022-12-27T10:18:25.033Z,100388.13
2022-12-27T10:21:50.804Z,100396.38
2022-12-27T11:18:04.483Z,100278.84
2022-12-27T11:47:24.860Z,100229.72
2022-12-27T11:54:08.082Z,100232.75
2022-12-27T11:56:38.825Z,100225.22
2022-12-27T11:59:31.712Z,100235.91
2022-12-27T12:02:31.925Z,100224.63
2022-12-27T12:05:45.651Z,100214.66
2022-12-27T12:21:26.944Z,100186.38
2022-12-27T12:30:54.248Z,100165.69
2022-12-27T12:33:45.417Z,100181.53
2022-12-27T12:36:52.245Z,100155.97
2022-12-27T12:40:03.342Z,100131.34
2022-12-27T12:43:03.565Z,100137.34
2022-12-27T12:46:05.534Z,100118.53
2022-12-27T12:49:17.883Z,100121.13
2022-12-27T12:52:28.401Z,100117.66
2022-12-27T12:55:27.131Z,100114.03
2022-12-27T12:58:09.004Z,100115.47
2022-12-27T13:01:08.789Z,100113.34
2022-12-27T13:04:16.053Z,100101.53
2022-12-27T13:07:23.300Z,100098.88
2022-12-27T13:10:31.804Z,100100.94
2022-12-27T13:13:13.129Z,100071.38
2022-12-27T13:16:08.579Z,100058.88
2022-12-27T13:18:48.617Z,100044.13
2022-12-27T13:21:28.556Z,100054.25
2022-12-27T13:24:06.414Z,100044.66
2022-12-27T13:26:52.794Z,100023.25
2022-12-27T13:29:53.275Z,100015.72
2022-12-27T13:32:35.643Z,100013.28
2022-12-27T13:35:23.345Z,100011.22
2022-12-27T13:38:05.171Z,100016.09
2022-12-27T13:41:07.869Z,100006.63
2022-12-27T13:43:56.712Z,100002.75
2022-12-27T13:46:57.498Z,100014.56
2022-12-27T13:50:18.615Z,100027.78
2022-12-27T13:53:05.270Z,100031.56
2022-12-27T13:55:50.600Z,100047.81
2022-12-27T13:58:59.547Z,100025.28
2022-12-27T14:01:50.807Z,100019.31
2022-12-27T14:04:36.145Z,100026.50
2022-12-27T14:07:37.516Z,100013.31
2022-12-27T14:10:14.835Z,100017.31
2022-12-27T14:12:59.734Z,100013.28
2022-12-27T14:15:54.368Z,100009.94
2022-12-27T14:18:47.979Z,100042.66
2022-12-27T14:21:40.939Z,100041.88
2022-12-27T14:24:35.592Z,100058.47
2022-12-27T14:28:08.655Z,100062.50
2022-12-27T14:32:18.203Z,100073.84
2022-12-27T14:35:24.970Z,100071.59
2022-12-27T14:38:33.203Z,100079.03
2022-12-27T14:42:00.061Z,100071.25
2022-12-27T14:45:30.110Z,100065.75
2022-12-27T14:48:56.074Z,100080.31
2022-12-27T14:52:10.495Z,100063.66
2022-12-27T14:55:23.399Z,100065.81
2022-12-27T14:58:13.464Z,100058.28
2022-12-27T15:01:49.299Z,100050.88
2022-12-27T15:05:02.536Z,100059.94
2022-12-27T15:20:43.895Z,100023.81
2022-12-27T15:24:01.233Z,100048.31
2022-12-27T15:35:32.129Z,100052.28
2022-12-27T15:42:59.289Z,100054.28
2022-12-27T15:45:45.689Z,100054.19
2022-12-27T15:48:49.918Z,100055.59
2022-12-27T15:51:33.919Z,100046.53
2022-12-27T15:54:21.093Z,100040.09
2022-12-27T15:57:15.289Z,100048.81
2022-12-27T15:59:49.130Z,100034.47
2022-12-27T16:02:34.426Z,100035.66
2022-12-27T16:05:13.074Z,100030.31
2022-12-27T16:07:46.142Z,100028.50
2022-12-27T16:10:50.273Z,100024.78
2022-12-27T16:13:45.180Z,100020.63
2022-12-27T16:16:54.570Z,100025.50
2022-12-27T16:20:01.377Z,100023.94
2022-12-27T16:22:37.654Z,100028.59
2022-12-27T16:25:30.126Z,100024.53
2022-12-27T16:28:08.211Z,100025.63
2022-12-27T16:30:42.212Z,100026.91
2022-12-27T16:33:24.440Z,100029.78
2022-12-27T16:36:18.278Z,100022.09
2022-12-27T16:38:57.098Z,100032.84
2022-12-27T16:41:41.600Z,100026.88
2022-12-27T16:44:19.291Z,100019.97
2022-12-27T16:47:04.311Z,100022.34
2022-12-27T16:49:56.827Z,100027.38
2022-12-27T16:53:00.078Z,100024.00
2022-12-27T16:55:52.127Z,100024.00
2022-12-27T16:58:33.395Z,100021.84
2022-12-27T17:01:28.800Z,100035.22
2022-12-27T17:03:58.656Z,100052.06
2022-12-27T17:06:56.883Z,100034.72
2022-12-27T17:09:45.727Z,100039.47
2022-12-27T17:12:26.935Z,100050.41
2022-12-27T17:15:05.794Z,100022.19
2022-12-27T17:17:36.281Z,100029.47
2022-12-27T17:20:16.676Z,100032.91
2022-12-27T17:22:46.754Z,100038.09
2022-12-27T17:25:23.092Z,100036.06
2022-12-27T17:28:10.556Z,100044.88
2022-12-27T17:30:53.939Z,100035.22
2022-12-27T17:33:40.463Z,100040.47
2022-12-27T17:36:24.774Z,100043.97
2022-12-27T17:39:07.661Z,100039.53
2022-12-27T17:42:06.795Z,100053.50
2022-12-27T17:44:48.444Z,100059.72
2022-12-27T17:47:37.645Z,100054.56
2022-12-27T17:50:10.946Z,100061.97
2022-12-27T17:52:57.066Z,100049.78
2022-12-27T17:55:46.384Z,100056.22
2022-12-27T17:58:17.734Z,100037.44
2022-12-27T18:00:55.352Z,100046.50
2022-12-27T18:03:28.844Z,100038.84
2022-12-27T18:05:58.413Z,100047.91
2022-12-27T18:08:30.203Z,100060.19
2022-12-27T18:11:00.030Z,100063.16
2022-12-27T18:13:34.886Z,100059.69
2022-12-27T18:16:11.944Z,100062.66
2022-12-27T18:18:49.609Z,100061.91
2022-12-27T18:21:25.133Z,100066.06
2022-12-27T18:23:54.837Z,100057.66
2022-12-27T18:26:36.726Z,100085.97
2022-12-27T18:29:07.527Z,100078.91
2022-12-27T18:31:42.360Z,100080.09
2022-12-27T18:34:25.145Z,100069.56
2022-12-27T18:37:02.199Z,100050.56
2022-12-27T18:39:33.255Z,100087.44
2022-12-27T18:42:05.587Z,100071.69
2022-12-27T18:44:45.941Z,100082.41
2022-12-27T18:47:23.781Z,100092.06
2022-12-27T18:49:59.492Z,100090.41
2022-12-27T18:52:33.511Z,100074.66
2022-12-27T18:55:18.325Z,100085.34
2022-12-27T18:57:48.838Z,100080.63
2022-12-27T19:00:26.852Z,100093.88
2022-12-27T19:03:13.311Z,100085.25
2022-12-27T19:05:47.961Z,100085.34
2022-12-27T19:08:20.568Z,100090.94
2022-12-27T19:10:52.678Z,100080.44
2022-12-27T19:13:27.394Z,100079.47
2022-12-27T19:15:58.936Z,100094.53
2022-12-27T19:18:30.798Z,100082.22
2022-12-27T19:21:01.652Z,100080.56
2022-12-27T19:23:33.698Z,100073.72
2022-12-27T19:26:07.280Z,100085.63
2022-12-27T19:28:36.818Z,100087.50
2022-12-27T19:31:17.778Z,100084.78
2022-12-27T19:33:49.942Z,100085.38
2022-12-27T19:36:19.153Z,100079.53
2022-12-27T19:38:48.319Z,100069.75
2022-12-27T19:41:17.663Z,100073.41
2022-12-27T19:43:48.048Z,100083.19
2022-12-27T19:46:19.341Z,100077.44
2022-12-27T19:49:23.300Z,100090.56
2022-12-27T19:51:37.778Z,100084.88
2022-12-27T19:54:14.797Z,100076.19
2022-12-27T19:56:43.530Z,100072.84
2022-12-27T19:59:17.123Z,100059.06
2022-12-27T20:01:48.070Z,100058.75
2022-12-27T20:04:18.088Z,100041.03
2022-12-27T20:06:49.474Z,100052.34
2022-12-27T20:09:20.220Z,100060.22
2022-12-27T20:11:51.068Z,100048.06
2022-12-27T20:14:22.836Z,100066.44
2022-12-27T20:16:54.027Z,100072.72
2022-12-27T20:19:24.178Z,100061.59
2022-12-27T20:21:53.079Z,100059.84
2022-12-27T20:24:21.604Z,100052.88
2022-12-27T20:26:50.695Z,100056.25
2022-12-27T20:29:21.132Z,100058.97
2022-12-27T20:31:52.510Z,100065.41
2022-12-27T20:34:22.688Z,100070.09
2022-12-27T20:36:52.853Z,100065.09
2022-12-27T20:39:21.684Z,100063.75
2022-12-27T20:41:50.470Z,100064.97
2022-12-27T20:44:19.431Z,100069.50
2022-12-27T20:46:48.799Z,100072.97
2022-12-27T20:49:17.492Z,100088.38
2022-12-27T20:51:47.964Z,100077.16
2022-12-27T20:54:17.709Z,100067.59
2022-12-27T20:56:46.273Z,100078.31
2022-12-27T20:59:14.967Z,100079.25
2022-12-27T21:01:43.608Z,100079.69
2022-12-27T21:04:12.441Z,100076.03
2022-12-27T21:06:40.963Z,100081.47
2022-12-27T21:09:10.926Z,100081.47
2022-12-27T21:11:42.422Z,100089.63
2022-12-27T21:14:12.803Z,100094.88
2022-12-27T21:16:41.377Z,100104.53
2022-12-27T21:19:10.115Z,100100.78
2022-12-27T21:21:40.087Z,100108.72
2022-12-27T21:24:12.882Z,100111.56
2022-12-27T21:26:42.129Z,100104.09
2022-12-27T21:29:12.437Z,100112.06
2022-12-27T21:31:41.053Z,100114.59
2022-12-27T21:34:10.318Z,100104.09
2022-12-27T21:36:40.272Z,100111.13
2022-12-27T21:39:09.930Z,100116.59
2022-12-27T21:41:41.854Z,100125.19
2022-12-27T21:44:11.462Z,100118.50
2022-12-27T21:46:41.526Z,100123.09
2022-12-27T21:49:12.576Z,100128.25
2022-12-27T21:51:43.013Z,100139.69
2022-12-27T21:54:13.928Z,100161.63
2022-12-27T21:56:44.525Z,100145.69
2022-12-27T21:59:13.907Z,100144.72
2022-12-27T22:01:50.625Z,100153.44
2022-12-27T22:04:20.815Z,100146.19
2022-12-27T22:06:49.308Z,100141.78
2022-12-27T22:09:19.566Z,100146.81
2022-12-27T22:11:50.015Z,100162.03
2022-12-27T22:14:23.467Z,100154.06
2022-12-27T22:16:54.046Z,100157.31
2022-12-27T22:19:22.465Z,100152.63
2022-12-27T22:21:51.044Z,100157.09
2022-12-27T22:24:20.025Z,100153.75
2022-12-27T22:26:50.657Z,100159.84
2022-12-27T22:29:19.545Z,100155.44
2022-12-27T22:31:48.423Z,100155.00
2022-12-27T22:34:17.091Z,100163.41
2022-12-27T22:36:45.947Z,100165.16
2022-12-27T22:39:16.675Z,100160.16
2022-12-27T22:41:49.219Z,100157.91
2022-12-27T22:44:19.465Z,100167.88
2022-12-27T22:49:39.970Z,100171.16
2022-12-27T22:52:09.822Z,100171.91
2022-12-27T22:55:04.140Z,100169.78
2022-12-27T22:57:27.693Z,100170.50
2022-12-27T22:59:57.751Z,100174.09
2022-12-27T23:02:26.401Z,100163.69
2022-12-27T23:04:55.437Z,100166.53
2022-12-27T23:08:05.826Z,100161.59
2022-12-27T23:10:12.640Z,100156.16
2022-12-27T23:12:41.317Z,100149.22
2022-12-27T23:15:12.716Z,100144.81
2022-12-27T23:17:41.502Z,100139.78
2022-12-27T23:20:12.637Z,100142.91
2022-12-27T23:22:42.285Z,100132.31
2022-12-27T23:25:11.268Z,100142.09
2022-12-27T23:27:39.956Z,100142.81
2022-12-27T23:30:11.885Z,100144.72
2022-12-27T23:32:40.768Z,100146.06
2022-12-27T23:35:10.216Z,100149.00
2022-12-27T23:37:38.799Z,100129.31
2022-12-27T23:40:09.783Z,100125.94
2022-12-27T23:42:38.349Z,100140.00
2022-12-27T23:45:09.035Z,100144.91
2022-12-27T23:47:39.304Z,100139.56
2022-12-27T23:50:09.013Z,100125.53
2022-12-27T23:52:37.636Z,100144.06
2022-12-27T23:55:07.280Z,100122.06
2022-12-27T23:57:36.114Z,100125.22
